Nearby METAR Reports

 

KSJC - San Jose, California, USA
Distance from station: NE 9mi, 14km
Updated: 2022-08-16 00:53
Clear
Clear
 Wind from WSW
Wind: WSW 3 mph , 6 km/h
Temperature: 70°F , 21°C
Dew Point: 61°F , 16°C
Humidity: 73%
Barometer: 29.81 inHg , 1009.5 hPa
Clouds: Clear
Visibility: 10 miles , 16 km
2022/08/16 07:53 KSJC 160753Z AUTO 25003KT 10SM CLR 21/16 A2981 RMK AO2 SLP093 T02060156 403220150
KPAO - Palo Alto, California, USA
Distance from station: NNW 14mi, 23km
Updated: 2022-08-15 20:47
NOT Current
Clear
Clear
 Wind from WNW
Wind: WNW 7 mph , 11 km/h
Temperature: 66°F , 19°C
Dew Point: 57°F , 14°C
Humidity: 73%
Barometer: 29.82 inHg , 1009.8 hPa
Clouds: Clear
Visibility: 10 miles , 16 km
2022/08/16 03:47 KPAO 160347Z 30006KT 10SM SKC 19/14 A2982 RMK LAST
 
KRHV - San Jose/Reid, California, USA
Distance from station: ENE 12mi, 19km
Updated: 2022-08-15 21:50
NOT Current
Clear
Clear
 Wind from calm
Wind: Calm
Temperature: 73°F , 23°C
Dew Point: 55°F , 13°C
Humidity: 53%
Barometer: 29.83 inHg , 1010.2 hPa
Clouds: Clear
Visibility: 10 miles , 16 km
2022/08/16 04:50 KRHV 160450Z 00000KT 10SM SKC 23/13 A2983 RMK LAST
KOAK - Oakland, California, USA
Distance from station: NNW 31mi, 50km
Updated: 2022-08-16 00:53
Few Clouds
Few Clouds
 Wind from NNW
Wind: NNW 5 mph , 7 km/h
Temperature: 61°F , 16°C
Dew Point: 55°F , 13°C
Humidity: 83%
Barometer: 29.82 inHg , 1009.8 hPa
Clouds: Few Clouds
Visibility: 10 miles , 16 km
Cloud details: Few Clouds 800 ft
2022/08/16 07:53 KOAK 160753Z 34004KT 10SM FEW008 16/13 A2982 RMK AO2 SLP097 T01560128 402560122
 
KSQL - San Carlos Airpo, California, USA
Distance from station: NW 21mi, 34km
Updated: 2022-08-16 00:55
Clear
Clear
 Wind from calm
Wind: Calm
Temperature: 63°F , 17°C
Dew Point: 55°F , 13°C
Humidity: 77%
Barometer: 29.82 inHg , 1009.8 hPa
Clouds: Clear
Visibility: 10 miles , 16 km
2022/08/16 07:55 KSQL 160755Z AUTO 00000KT 10SM CLR 17/13 A2982 RMK AO2
KSFO - San Francisco, California, USA
Distance from station: NW 30mi, 49km
Updated: 2022-08-16 00:56
Clear
Clear
 Wind from WNW
Wind: WNW 10 mph , 17 km/h
Temperature: 61°F , 16°C
Dew Point: 52°F , 11°C
Humidity: 72%
Barometer: 29.81 inHg , 1009.5 hPa
Clouds: Clear
Visibility: 10 miles , 16 km
2022/08/16 07:56 KSFO 160756Z 30009KT 10SM CLR 16/11 A2981 RMK AO2 SLP094 T01610111 402440139
 
KE16 - San Martin, California, USA
Distance from station: ESE 27mi, 43km
Updated: 2022-08-16 00:55
Clear
Clear
 Wind from calm
Wind: Calm
Temperature: 59°F , 15°C
Dew Point: 54°F , 12°C
Humidity: 82%
Barometer: 29.86 inHg , 1011.2 hPa
Clouds: Clear
Visibility: 10 miles , 16 km
2022/08/16 07:55 KE16 160755Z AUTO 00000KT 10SM CLR 15/12 A2986 RMK AO2
KWVI - Watsonville, California, USA
Distance from station: SSE 27mi, 44km
Updated: 2022-08-16 00:53
Mist, Overcast
Mist, Overcast
 Wind from calm
Wind: Calm
Temperature: 54°F , 12°C
Dew Point: 54°F , 12°C
Humidity: 100%
Barometer: 29.85 inHg , 1010.8 hPa
Summary: Mist
Clouds: Overcast
Visibility: 3/4 mile , 1.2 km
Cloud details: Overcast 200 ft
2022/08/16 07:53 KWVI 160753Z AUTO 00000KT 3/4SM BR VV002 12/12 A2985 RMK AO2 SLP106 T01170117 402170111
 
KHAF - Half Moon Bay, California, USA
Distance from station: WNW 31mi, 50km
Updated: 2022-08-16 00:55
Mist, Mostly cloudy
Mist, Mostly cloudy
 Wind from calm
Wind: Calm
Temperature: 50°F , 10°C
Dew Point: 50°F , 10°C
Humidity: 100%
Barometer: 29.85 inHg , 1010.8 hPa
Summary: Mist
Clouds: Mostly cloudy
Visibility: 5 miles , 8 km
Cloud details: Mostly cloudy 300 ft
2022/08/16 07:55 KHAF 160755Z AUTO 00000KT 5SM BR BKN003 10/10 A2985 RMK AO2
KHWD - Hayward, California, USA
Distance from station: N 28mi, 44km
Updated: 2022-08-16 00:54
Clear
Clear
 Wind from NNW
Wind: NNW 3 mph , 6 km/h
Temperature: 63°F , 17°C
Dew Point: 55°F , 13°C
Humidity: 77%
Barometer: 29.81 inHg , 1009.5 hPa
Clouds: Clear
Visibility: 10 miles , 16 km
2022/08/16 07:54 KHWD 160754Z 33003KT 10SM CLR 17/13 A2981 RMK AO2 SLP104 T01720133 402940144
 
KLVK - Livermore, California, USA
Distance from station: NNE 31mi, 51km
Updated: 2022-08-16 00:53
Clear
Clear
 Wind from calm
Wind: Calm
Temperature: 70°F , 21°C
Dew Point: 48°F , 9°C
Humidity: 46%
Barometer: 29.80 inHg , 1009.1 hPa
Clouds: Clear
Visibility: 10 miles , 16 km
2022/08/16 07:53 KLVK 160753Z AUTO 00000KT 10SM CLR 21/09 A2980 RMK AO2 SLP087 T02060094 403830144